CLW93 UCFO-VLVT
Flight info
| Callsign | CLW93 |
|---|---|
| Flight time | N/A |
| Altitude | 31000 |
| Route | REMIZ L135 MALEX L141 KAMUD/K0870S0950 W186 PAMLI/K0863S1010 W186 SADAN L888 LUVAR/K0870S1070 L888 SANLI/K0880S1040 L888 NIVUX/K0882S1070 L888 BIDRU A581 SAGAG/N0474F360 B218 LPB/N0477F350 DCT KAASI |
| Aircraft | B738/M-SDE2E3FGHIRWXY/LB1 |
Departure
| Time | 2026-05-08 06:36 |
|---|---|
| Airport | Osh International Airport (UCFO) |
Arrival
| Time | N/A |
|---|---|
| Airport | Wattay International Airport (VLVT) |
| Time | Latitude | Longitude | Altitude | Speed | Heading |
|---|---|---|---|---|---|
| 2026-05-08 06:18 | 40.60886 | 72.78636 | 2928 ft | 0 kts | 216° |
| 2026-05-08 06:25 | 40.60896 | 72.78645 | 2927 ft | 2 kts | 216° |
| 2026-05-08 06:25 | 40.60909 | 72.78658 | 2928 ft | 2 kts | 215° |
| 2026-05-08 06:25 | 40.60923 | 72.78670 | 2928 ft | 2 kts | 214° |
| 2026-05-08 06:25 | 40.60937 | 72.78682 | 2927 ft | 2 kts | 192° |
| 2026-05-08 06:26 | 40.60952 | 72.78677 | 2927 ft | 2 kts | 136° |
| 2026-05-08 06:26 | 40.60957 | 72.78670 | 2928 ft | 0 kts | 127° |
| 2026-05-08 06:29 | 40.60937 | 72.78707 | 2924 ft | 9 kts | 125° |
| 2026-05-08 06:29 | 40.60896 | 72.78792 | 2931 ft | 11 kts | 101° |
| 2026-05-08 06:29 | 40.60935 | 72.78878 | 2933 ft | 11 kts | 84° |
| 2026-05-08 06:29 | 40.60899 | 72.78966 | 2930 ft | 11 kts | 125° |
| 2026-05-08 06:30 | 40.60855 | 72.79047 | 2931 ft | 11 kts | 126° |
| 2026-05-08 06:30 | 40.60810 | 72.79129 | 2932 ft | 11 kts | 126° |
| 2026-05-08 06:30 | 40.60763 | 72.79215 | 2931 ft | 12 kts | 125° |
| 2026-05-08 06:30 | 40.60715 | 72.79304 | 2930 ft | 12 kts | 125° |
| 2026-05-08 06:31 | 40.60691 | 72.79399 | 2934 ft | 12 kts | 63° |
| 2026-05-08 06:31 | 40.60752 | 72.79465 | 2934 ft | 12 kts | 35° |
| 2026-05-08 06:31 | 40.60770 | 72.79560 | 2927 ft | 12 kts | 120° |
| 2026-05-08 06:31 | 40.60714 | 72.79667 | 2932 ft | 17 kts | 126° |
| 2026-05-08 06:32 | 40.60636 | 72.79810 | 2929 ft | 21 kts | 124° |
| 2026-05-08 06:32 | 40.60547 | 72.79973 | 2931 ft | 23 kts | 126° |
| 2026-05-08 06:32 | 40.60446 | 72.80157 | 2933 ft | 25 kts | 126° |
| 2026-05-08 06:32 | 40.60348 | 72.80336 | 2933 ft | 24 kts | 126° |
| 2026-05-08 06:33 | 40.60254 | 72.80507 | 2931 ft | 23 kts | 126° |
| 2026-05-08 06:33 | 40.60164 | 72.80674 | 2931 ft | 22 kts | 125° |
| 2026-05-08 06:33 | 40.60078 | 72.80837 | 2932 ft | 21 kts | 114° |
| 2026-05-08 06:33 | 40.60054 | 72.80967 | 2933 ft | 11 kts | 147° |
| 2026-05-08 06:34 | 40.60028 | 72.80912 | 2930 ft | 11 kts | 321° |
| 2026-05-08 06:34 | 40.60048 | 72.80884 | 2931 ft | 0 kts | 308° |
| 2026-05-08 06:34 | 40.60057 | 72.80868 | 2927 ft | 8 kts | 307° |
| 2026-05-08 06:34 | 40.60124 | 72.80744 | 2929 ft | 25 kts | 306° |
| 2026-05-08 06:35 | 40.60283 | 72.80456 | 2931 ft | 62 kts | 305° |
| 2026-05-08 06:35 | 40.60654 | 72.79774 | 2932 ft | 117 kts | 305° |
| 2026-05-08 06:35 | 40.61221 | 72.78732 | 2929 ft | 162 kts | 305° |
| 2026-05-08 06:35 | 40.61919 | 72.77448 | 3248 ft | 173 kts | 305° |
| 2026-05-08 06:36 | 40.62689 | 72.76161 | 3665 ft | 188 kts | 323° |
| 2026-05-08 06:36 | 40.63899 | 72.75588 | 4212 ft | 188 kts | 3° |
| 2026-05-08 06:36 | 40.65136 | 72.76168 | 4645 ft | 203 kts | 41° |
| 2026-05-08 06:36 | 40.65911 | 72.77762 | 5012 ft | 215 kts | 66° |
| 2026-05-08 06:37 | 40.66517 | 72.79595 | 5485 ft | 218 kts | 67° |
| 2026-05-08 06:37 | 40.67070 | 72.81440 | 5954 ft | 223 kts | 69° |
| 2026-05-08 06:37 | 40.67645 | 72.83434 | 6140 ft | 242 kts | 69° |
| 2026-05-08 06:37 | 40.68261 | 72.85564 | 6414 ft | 254 kts | 69° |
| 2026-05-08 06:38 | 40.68907 | 72.87780 | 6829 ft | 263 kts | 69° |
| 2026-05-08 06:38 | 40.69579 | 72.90063 | 7276 ft | 270 kts | 68° |
| 2026-05-08 06:38 | 40.70266 | 72.92382 | 7920 ft | 272 kts | 68° |
| 2026-05-08 06:38 | 40.70955 | 72.94708 | 8632 ft | 270 kts | 68° |
| 2026-05-08 06:39 | 40.71635 | 72.96998 | 9398 ft | 270 kts | 68° |
| 2026-05-08 06:39 | 40.72328 | 72.99327 | 9999 ft | 276 kts | 68° |
| 2026-05-08 06:39 | 40.73238 | 73.01559 | 10535 ft | 279 kts | 54° |
| 2026-05-08 06:39 | 40.74395 | 73.03576 | 11119 ft | 280 kts | 50° |
| 2026-05-08 06:40 | 40.75632 | 73.05577 | 11697 ft | 283 kts | 50° |
| 2026-05-08 06:40 | 40.76889 | 73.07594 | 12313 ft | 285 kts | 50° |
| 2026-05-08 06:40 | 40.78147 | 73.09632 | 12906 ft | 288 kts | 50° |
| 2026-05-08 06:40 | 40.79411 | 73.11702 | 13545 ft | 290 kts | 50° |
| 2026-05-08 06:41 | 40.80676 | 73.13789 | 14138 ft | 293 kts | 50° |
| 2026-05-08 06:41 | 40.81948 | 73.15902 | 14648 ft | 294 kts | 51° |
| 2026-05-08 06:41 | 40.83225 | 73.18034 | 15163 ft | 296 kts | 51° |
| 2026-05-08 06:41 | 40.84516 | 73.20196 | 15535 ft | 306 kts | 51° |
| 2026-05-08 06:42 | 40.85879 | 73.22483 | 15672 ft | 324 kts | 51° |
| 2026-05-08 06:42 | 40.87312 | 73.24893 | 15803 ft | 342 kts | 51° |
| 2026-05-08 06:42 | 40.88818 | 73.27431 | 15961 ft | 360 kts | 51° |
| 2026-05-08 06:42 | 40.90398 | 73.30096 | 16079 ft | 376 kts | 51° |
| 2026-05-08 06:43 | 40.92026 | 73.32847 | 16190 ft | 392 kts | 51° |
| 2026-05-08 06:43 | 40.93730 | 73.35731 | 16419 ft | 403 kts | 51° |
| 2026-05-08 06:43 | 40.95462 | 73.38665 | 16918 ft | 405 kts | 51° |
| 2026-05-08 06:43 | 40.97200 | 73.41612 | 17508 ft | 406 kts | 51° |
| 2026-05-08 06:44 | 40.98947 | 73.44578 | 18000 ft | 409 kts | 51° |
| 2026-05-08 06:44 | 41.00705 | 73.47564 | 18468 ft | 412 kts | 51° |
| 2026-05-08 06:44 | 41.02472 | 73.50567 | 18905 ft | 415 kts | 51° |
| 2026-05-08 06:44 | 41.04251 | 73.53594 | 19334 ft | 417 kts | 51° |
| 2026-05-08 06:45 | 41.06043 | 73.56646 | 19738 ft | 420 kts | 51° |
| 2026-05-08 06:45 | 41.07235 | 73.58679 | 20012 ft | 422 kts | 51° |
| 2026-05-08 06:45 | 41.09044 | 73.61766 | 20446 ft | 425 kts | 51° |
| 2026-05-08 06:45 | 41.11455 | 73.65882 | 21015 ft | 428 kts | 51° |
| 2026-05-08 06:46 | 41.13287 | 73.69014 | 21406 ft | 431 kts | 51° |
| 2026-05-08 06:46 | 41.15128 | 73.72163 | 21829 ft | 433 kts | 51° |
| 2026-05-08 06:46 | 41.16382 | 73.74312 | 22089 ft | 435 kts | 51° |
| 2026-05-08 06:46 | 41.18242 | 73.77500 | 22470 ft | 438 kts | 51° |
| 2026-05-08 06:47 | 41.20085 | 73.80665 | 22844 ft | 441 kts | 51° |
| 2026-05-08 06:47 | 41.21962 | 73.83892 | 23212 ft | 443 kts | 51° |
| 2026-05-08 06:47 | 41.23851 | 73.87141 | 23564 ft | 446 kts | 51° |
| 2026-05-08 06:47 | 41.25751 | 73.90411 | 23884 ft | 448 kts | 51° |
| 2026-05-08 06:48 | 41.27659 | 73.93696 | 24182 ft | 450 kts | 51° |
| 2026-05-08 06:48 | 41.29504 | 73.97065 | 24482 ft | 453 kts | 57° |
| 2026-05-08 06:48 | 41.30920 | 74.00825 | 24779 ft | 456 kts | 68° |
| 2026-05-08 06:48 | 41.31856 | 74.04868 | 25092 ft | 459 kts | 77° |
| 2026-05-08 06:49 | 41.32290 | 74.09080 | 25384 ft | 461 kts | 84° |
| 2026-05-08 06:49 | 41.32574 | 74.13332 | 25682 ft | 463 kts | 84° |
| 2026-05-08 06:49 | 41.32834 | 74.17614 | 25954 ft | 465 kts | 85° |
| 2026-05-08 06:49 | 41.33098 | 74.21919 | 26256 ft | 467 kts | 84° |
| 2026-05-08 06:50 | 41.33375 | 74.26212 | 26717 ft | 464 kts | 84° |
| 2026-05-08 06:50 | 41.33662 | 74.30482 | 27170 ft | 462 kts | 84° |
| 2026-05-08 06:50 | 41.33956 | 74.34739 | 27571 ft | 461 kts | 84° |
| 2026-05-08 06:50 | 41.34253 | 74.38990 | 27952 ft | 461 kts | 84° |
| 2026-05-08 06:51 | 41.34550 | 74.43232 | 28360 ft | 460 kts | 84° |
| 2026-05-08 06:51 | 41.34842 | 74.47414 | 28770 ft | 459 kts | 84° |
| 2026-05-08 06:51 | 41.35134 | 74.51633 | 29171 ft | 457 kts | 84° |
| 2026-05-08 06:51 | 41.35427 | 74.55899 | 29546 ft | 456 kts | 84° |
| 2026-05-08 06:52 | 41.35714 | 74.60102 | 29939 ft | 455 kts | 84° |
| 2026-05-08 06:52 | 41.35994 | 74.64236 | 30320 ft | 454 kts | 84° |
| 2026-05-08 06:52 | 41.36277 | 74.68420 | 30629 ft | 453 kts | 84° |
| 2026-05-08 06:52 | 41.36556 | 74.72592 | 30927 ft | 453 kts | 84° |
| 2026-05-08 06:53 | 41.36835 | 74.76768 | 31220 ft | 452 kts | 84° |
| 2026-05-08 06:53 | 41.37113 | 74.80949 | 31251 ft | 456 kts | 84° |
| 2026-05-08 06:53 | 41.37672 | 74.89444 | 31269 ft | 461 kts | 84° |
| 2026-05-08 06:54 | 41.38223 | 74.97932 | 31264 ft | 458 kts | 84° |
| 2026-05-08 06:54 | 41.38763 | 75.06365 | 31278 ft | 456 kts | 84° |
| 2026-05-08 06:55 | 41.39293 | 75.14701 | 31279 ft | 454 kts | 84° |
| 2026-05-08 06:55 | 41.39818 | 75.23077 | 31274 ft | 454 kts | 85° |
| 2026-05-08 06:56 | 41.40338 | 75.31457 | 31273 ft | 453 kts | 85° |
| 2026-05-08 06:56 | 41.40851 | 75.39829 | 31265 ft | 454 kts | 85° |
| 2026-05-08 06:57 | 41.41360 | 75.48238 | 31255 ft | 455 kts | 85° |
| 2026-05-08 06:57 | 41.41861 | 75.56612 | 31241 ft | 456 kts | 85° |
| 2026-05-08 06:58 | 41.42360 | 75.65057 | 31237 ft | 457 kts | 85° |
| 2026-05-08 06:58 | 41.42854 | 75.73507 | 31227 ft | 458 kts | 85° |
| 2026-05-08 06:59 | 41.43343 | 75.81991 | 31233 ft | 459 kts | 85° |
| 2026-05-08 06:59 | 41.43828 | 75.90509 | 31223 ft | 461 kts | 85° |
| 2026-05-08 07:00 | 41.44307 | 75.99022 | 31224 ft | 460 kts | 85° |
| 2026-05-08 07:00 | 41.44779 | 76.07532 | 31225 ft | 459 kts | 85° |
| 2026-05-08 07:01 | 41.45244 | 76.16026 | 31228 ft | 458 kts | 85° |
| 2026-05-08 07:01 | 41.45698 | 76.24423 | 31226 ft | 457 kts | 85° |
| 2026-05-08 07:02 | 41.46148 | 76.32867 | 31232 ft | 456 kts | 85° |
| 2026-05-08 07:02 | 41.46591 | 76.41308 | 31233 ft | 456 kts | 85° |
| 2026-05-08 07:03 | 41.47028 | 76.49741 | 31232 ft | 456 kts | 85° |
| 2026-05-08 07:03 | 41.47459 | 76.58178 | 31228 ft | 455 kts | 85° |
| 2026-05-08 07:04 | 41.47882 | 76.66603 | 31246 ft | 455 kts | 85° |
| 2026-05-08 07:04 | 41.48300 | 76.75013 | 31246 ft | 454 kts | 84° |
| 2026-05-08 07:05 | 41.48707 | 76.83350 | 31255 ft | 454 kts | 85° |
| 2026-05-08 07:05 | 41.49113 | 76.91755 | 31253 ft | 454 kts | 85° |
| 2026-05-08 07:06 | 41.49512 | 77.00173 | 31245 ft | 455 kts | 85° |
| 2026-05-08 07:06 | 41.49904 | 77.08590 | 31235 ft | 453 kts | 84° |
| 2026-05-08 07:07 | 41.50288 | 77.16954 | 31261 ft | 452 kts | 84° |
| 2026-05-08 07:07 | 41.50666 | 77.25311 | 31264 ft | 451 kts | 84° |
| 2026-05-08 07:08 | 41.51038 | 77.33661 | 31262 ft | 451 kts | 84° |
| 2026-05-08 07:08 | 41.51401 | 77.41950 | 31270 ft | 450 kts | 84° |
| 2026-05-08 07:09 | 41.51760 | 77.50292 | 31268 ft | 451 kts | 84° |
| 2026-05-08 07:09 | 41.52113 | 77.58639 | 31276 ft | 451 kts | 84° |
| 2026-05-08 07:10 | 41.52460 | 77.66990 | 31270 ft | 451 kts | 84° |
| 2026-05-08 07:10 | 41.52802 | 77.75347 | 31267 ft | 451 kts | 84° |
| 2026-05-08 07:11 | 41.53138 | 77.83722 | 31274 ft | 452 kts | 84° |
| 2026-05-08 07:11 | 41.53467 | 77.92105 | 31264 ft | 452 kts | 84° |
| 2026-05-08 07:12 | 41.53790 | 78.00489 | 31270 ft | 452 kts | 84° |
| 2026-05-08 07:12 | 41.54109 | 78.08861 | 31264 ft | 451 kts | 85° |
| 2026-05-08 07:13 | 41.54418 | 78.17155 | 31257 ft | 449 kts | 84° |
| 2026-05-08 07:13 | 41.54722 | 78.25482 | 31266 ft | 448 kts | 84° |
| 2026-05-08 07:14 | 41.55019 | 78.33797 | 31260 ft | 448 kts | 84° |
| 2026-05-08 07:14 | 41.55310 | 78.42108 | 31264 ft | 448 kts | 85° |
| 2026-05-08 07:15 | 41.55595 | 78.50406 | 31250 ft | 448 kts | 85° |
| 2026-05-08 07:15 | 41.55874 | 78.58711 | 31257 ft | 447 kts | 85° |
| 2026-05-08 07:16 | 41.56147 | 78.67018 | 31310 ft | 450 kts | 85° |
| 2026-05-08 07:16 | 41.56283 | 78.71197 | 31560 ft | 450 kts | 85° |
| 2026-05-08 07:16 | 41.56416 | 78.75355 | 31945 ft | 446 kts | 85° |
| 2026-05-08 07:17 | 41.56547 | 78.79493 | 32261 ft | 446 kts | 85° |
| 2026-05-08 07:17 | 41.56482 | 78.83642 | 32453 ft | 450 kts | 93° |
| 2026-05-08 07:17 | 41.55936 | 78.87719 | 32632 ft | 454 kts | 102° |
| 2026-05-08 07:17 | 41.55134 | 78.91786 | 32950 ft | 452 kts | 103° |
| 2026-05-08 07:18 | 41.54296 | 78.95830 | 33227 ft | 451 kts | 103° |
| 2026-05-08 07:18 | 41.53450 | 78.99874 | 33253 ft | 453 kts | 103° |
| 2026-05-08 07:18 | 41.51772 | 79.08042 | 33260 ft | 460 kts | 102° |
| 2026-05-08 07:19 | 41.50109 | 79.16291 | 33221 ft | 460 kts | 102° |
| 2026-05-08 07:19 | 41.48454 | 79.24536 | 33194 ft | 460 kts | 102° |
| 2026-05-08 07:20 | 41.46804 | 79.32733 | 33169 ft | 459 kts | 102° |
| 2026-05-08 07:20 | 41.45140 | 79.40959 | 33148 ft | 458 kts | 102° |
| 2026-05-08 07:21 | 41.43474 | 79.49159 | 33128 ft | 458 kts | 102° |
| 2026-05-08 07:21 | 41.41803 | 79.57352 | 33115 ft | 457 kts | 102° |
| 2026-05-08 07:22 | 41.40142 | 79.65465 | 33107 ft | 457 kts | 103° |
| 2026-05-08 07:22 | 41.38464 | 79.73624 | 33114 ft | 456 kts | 103° |
| 2026-05-08 07:23 | 41.36782 | 79.81777 | 33094 ft | 456 kts | 103° |
| 2026-05-08 07:23 | 41.35097 | 79.89906 | 33097 ft | 455 kts | 103° |
| 2026-05-08 07:24 | 41.33405 | 79.98043 | 33099 ft | 455 kts | 103° |
| 2026-05-08 07:24 | 41.31711 | 80.06154 | 33086 ft | 455 kts | 103° |
| 2026-05-08 07:25 | 41.30012 | 80.14262 | 33083 ft | 455 kts | 104° |
| 2026-05-08 07:26 | 41.27457 | 80.26399 | 33081 ft | 456 kts | 104° |
| 2026-05-08 07:26 | 41.25733 | 80.34540 | 33074 ft | 457 kts | 104° |
| 2026-05-08 07:27 | 41.23989 | 80.42682 | 33065 ft | 458 kts | 104° |
| 2026-05-08 07:27 | 41.22248 | 80.50775 | 33066 ft | 459 kts | 105° |
| 2026-05-08 07:28 | 41.20489 | 80.58928 | 33064 ft | 459 kts | 105° |
| 2026-05-08 07:28 | 41.18724 | 80.67077 | 33065 ft | 459 kts | 105° |
| 2026-05-08 07:29 | 41.16955 | 80.75223 | 33062 ft | 459 kts | 105° |
| 2026-05-08 07:29 | 41.15179 | 80.83366 | 33060 ft | 459 kts | 105° |
| 2026-05-08 07:30 | 41.13403 | 80.91480 | 33059 ft | 458 kts | 105° |
| 2026-05-08 07:30 | 41.11634 | 80.99530 | 33054 ft | 457 kts | 105° |
| 2026-05-08 07:31 | 41.09848 | 81.07628 | 33062 ft | 456 kts | 105° |
| 2026-05-08 07:31 | 41.08061 | 81.15704 | 33051 ft | 456 kts | 105° |
| 2026-05-08 07:32 | 41.06271 | 81.23760 | 33063 ft | 455 kts | 105° |
| 2026-05-08 07:32 | 41.04488 | 81.31759 | 33061 ft | 455 kts | 105° |
| 2026-05-08 07:33 | 41.02688 | 81.39801 | 33052 ft | 454 kts | 105° |
| 2026-05-08 07:33 | 41.00889 | 81.47813 | 33056 ft | 453 kts | 105° |
| 2026-05-08 07:34 | 40.99390 | 81.54466 | 33054 ft | 453 kts | 105° |
| 2026-05-08 07:34 | 40.97290 | 81.63759 | 33056 ft | 453 kts | 105° |
| 2026-05-08 07:35 | 40.95576 | 81.71763 | 33060 ft | 452 kts | 103° |
| 2026-05-08 07:35 | 40.94326 | 81.78477 | 33059 ft | 452 kts | 102° |
| 2026-05-08 07:36 | 40.92847 | 81.86547 | 33059 ft | 451 kts | 102° |
| 2026-05-08 07:36 | 40.91335 | 81.94609 | 33060 ft | 451 kts | 103° |
| 2026-05-08 07:37 | 40.89800 | 82.02654 | 33060 ft | 451 kts | 103° |
| 2026-05-08 07:37 | 40.88253 | 82.10691 | 33062 ft | 451 kts | 103° |
| 2026-05-08 07:38 | 40.86701 | 82.18727 | 33061 ft | 451 kts | 103° |
| 2026-05-08 07:38 | 40.85144 | 82.26762 | 33063 ft | 451 kts | 103° |
| 2026-05-08 07:39 | 40.83580 | 82.34797 | 33061 ft | 452 kts | 103° |
| 2026-05-08 07:39 | 40.82018 | 82.42793 | 33056 ft | 451 kts | 103° |
| 2026-05-08 07:40 | 40.80444 | 82.50817 | 33062 ft | 451 kts | 103° |
| 2026-05-08 07:40 | 40.78866 | 82.58828 | 33059 ft | 450 kts | 103° |
| 2026-05-08 07:41 | 40.77287 | 82.66815 | 33059 ft | 449 kts | 103° |
| 2026-05-08 07:41 | 40.75714 | 82.74739 | 33059 ft | 449 kts | 103° |
| 2026-05-08 07:42 | 40.74127 | 82.82701 | 33063 ft | 449 kts | 103° |
| 2026-05-08 07:42 | 40.72536 | 82.90657 | 33061 ft | 449 kts | 103° |
| 2026-05-08 07:43 | 40.70938 | 82.98612 | 33063 ft | 449 kts | 103° |
| 2026-05-08 07:43 | 40.69334 | 83.06565 | 33063 ft | 449 kts | 103° |
| 2026-05-08 07:44 | 40.67735 | 83.14467 | 33063 ft | 449 kts | 103° |
| 2026-05-08 07:44 | 40.66121 | 83.22411 | 33062 ft | 449 kts | 103° |
| 2026-05-08 07:45 | 40.64498 | 83.30366 | 33061 ft | 449 kts | 103° |
| 2026-05-08 07:45 | 40.62873 | 83.38302 | 33063 ft | 449 kts | 103° |
| 2026-05-08 07:46 | 40.61243 | 83.46235 | 33057 ft | 449 kts | 103° |
| 2026-05-08 07:46 | 40.59616 | 83.54118 | 33060 ft | 448 kts | 103° |
| 2026-05-08 07:47 | 40.57975 | 83.62042 | 33060 ft | 448 kts | 103° |
| 2026-05-08 07:47 | 40.56332 | 83.69948 | 33055 ft | 448 kts | 103° |
| 2026-05-08 07:48 | 40.54685 | 83.77843 | 33059 ft | 447 kts | 103° |
| 2026-05-08 07:48 | 40.53034 | 83.85734 | 33060 ft | 447 kts | 103° |
| 2026-05-08 07:49 | 40.51379 | 83.93609 | 33055 ft | 446 kts | 103° |
| 2026-05-08 07:49 | 40.49777 | 84.01440 | 33056 ft | 446 kts | 103° |
| 2026-05-08 07:50 | 40.48191 | 84.09312 | 33058 ft | 445 kts | 103° |
| 2026-05-08 07:50 | 40.46600 | 84.17165 | 33060 ft | 445 kts | 103° |
| 2026-05-08 07:51 | 40.45001 | 84.25004 | 33054 ft | 444 kts | 103° |
| 2026-05-08 07:51 | 40.43396 | 84.32833 | 33061 ft | 444 kts | 103° |
| 2026-05-08 07:52 | 40.41785 | 84.40656 | 33059 ft | 444 kts | 103° |
| 2026-05-08 07:52 | 40.40180 | 84.48423 | 33062 ft | 443 kts | 103° |
| 2026-05-08 07:53 | 40.38562 | 84.56225 | 33055 ft | 443 kts | 103° |
| 2026-05-08 07:53 | 40.36938 | 84.64027 | 33053 ft | 443 kts | 103° |
| 2026-05-08 07:54 | 40.35310 | 84.71819 | 33058 ft | 443 kts | 103° |
| 2026-05-08 07:54 | 40.33678 | 84.79605 | 33070 ft | 443 kts | 103° |
| 2026-05-08 07:55 | 40.32042 | 84.87378 | 33063 ft | 442 kts | 103° |
| 2026-05-08 07:55 | 40.30400 | 84.95149 | 33063 ft | 442 kts | 104° |
| 2026-05-08 07:56 | 40.28762 | 85.02873 | 33063 ft | 442 kts | 104° |
| 2026-05-08 07:56 | 40.27110 | 85.10637 | 33060 ft | 442 kts | 104° |
| 2026-05-08 07:57 | 40.25454 | 85.18395 | 33063 ft | 442 kts | 104° |
| 2026-05-08 07:57 | 40.23792 | 85.26151 | 33062 ft | 442 kts | 104° |
| 2026-05-08 07:58 | 40.22126 | 85.33895 | 33064 ft | 442 kts | 104° |
| 2026-05-08 07:58 | 40.20451 | 85.41653 | 33066 ft | 442 kts | 104° |
| 2026-05-08 07:59 | 40.18776 | 85.49387 | 33069 ft | 442 kts | 104° |
| 2026-05-08 07:59 | 40.17105 | 85.57071 | 33064 ft | 442 kts | 104° |
| 2026-05-08 08:00 | 40.15421 | 85.64790 | 33067 ft | 441 kts | 104° |
| 2026-05-08 08:00 | 40.13733 | 85.72503 | 33065 ft | 441 kts | 104° |
| 2026-05-08 08:01 | 40.12037 | 85.80221 | 33068 ft | 441 kts | 104° |
| 2026-05-08 08:01 | 40.10337 | 85.87936 | 33067 ft | 441 kts | 104° |
| 2026-05-08 08:02 | 40.08633 | 85.95642 | 33067 ft | 441 kts | 104° |
| 2026-05-08 08:02 | 40.06224 | 86.02947 | 33067 ft | 445 kts | 121° |
| 2026-05-08 08:03 | 40.02680 | 86.09592 | 33063 ft | 445 kts | 123° |
| 2026-05-08 08:03 | 39.99085 | 86.16180 | 33064 ft | 445 kts | 123° |
| 2026-05-08 08:04 | 39.95513 | 86.22788 | 33069 ft | 445 kts | 123° |
| 2026-05-08 08:04 | 39.91985 | 86.29358 | 33077 ft | 445 kts | 123° |
| 2026-05-08 08:05 | 39.88431 | 86.35980 | 33070 ft | 445 kts | 123° |
| 2026-05-08 08:05 | 39.84876 | 86.42595 | 33066 ft | 446 kts | 123° |
| 2026-05-08 08:06 | 39.81314 | 86.49206 | 33069 ft | 446 kts | 123° |
| 2026-05-08 08:06 | 39.77753 | 86.55800 | 33074 ft | 446 kts | 123° |
| 2026-05-08 08:07 | 39.74184 | 86.62394 | 33067 ft | 446 kts | 123° |
| 2026-05-08 08:07 | 39.70635 | 86.68939 | 33072 ft | 446 kts | 123° |
| 2026-05-08 08:08 | 39.67053 | 86.75530 | 33074 ft | 446 kts | 123° |
| 2026-05-08 08:08 | 39.63467 | 86.82114 | 33069 ft | 447 kts | 123° |
| 2026-05-08 08:09 | 39.59875 | 86.88696 | 33071 ft | 447 kts | 124° |
| 2026-05-08 08:09 | 39.56300 | 86.95234 | 33068 ft | 447 kts | 124° |
| 2026-05-08 08:10 | 39.52697 | 87.01810 | 33072 ft | 448 kts | 124° |
| 2026-05-08 08:10 | 39.49087 | 87.08384 | 33072 ft | 448 kts | 124° |
| 2026-05-08 08:11 | 39.45467 | 87.14963 | 33068 ft | 448 kts | 124° |
| 2026-05-08 08:11 | 39.41844 | 87.21534 | 33074 ft | 448 kts | 124° |
| 2026-05-08 08:12 | 39.38214 | 87.28104 | 33072 ft | 449 kts | 124° |
| 2026-05-08 08:12 | 39.34580 | 87.34667 | 33071 ft | 449 kts | 124° |
| 2026-05-08 08:13 | 39.30965 | 87.41182 | 33066 ft | 449 kts | 124° |
| 2026-05-08 08:13 | 39.27317 | 87.47746 | 33061 ft | 449 kts | 124° |
| 2026-05-08 08:14 | 39.23663 | 87.54305 | 33070 ft | 450 kts | 124° |
| 2026-05-08 08:14 | 39.20007 | 87.60855 | 33068 ft | 450 kts | 124° |
| 2026-05-08 08:15 | 39.16343 | 87.67405 | 33064 ft | 450 kts | 124° |
| 2026-05-08 08:15 | 39.12676 | 87.73948 | 33063 ft | 450 kts | 124° |
| 2026-05-08 08:16 | 39.09026 | 87.80447 | 33064 ft | 451 kts | 124° |
| 2026-05-08 08:16 | 39.05347 | 87.86985 | 33064 ft | 451 kts | 124° |
| 2026-05-08 08:17 | 39.01661 | 87.93521 | 33066 ft | 451 kts | 125° |
| 2026-05-08 08:17 | 38.97964 | 88.00064 | 33081 ft | 452 kts | 125° |
| 2026-05-08 08:18 | 38.94286 | 88.06560 | 33092 ft | 452 kts | 125° |
| 2026-05-08 08:18 | 38.90586 | 88.13082 | 33107 ft | 452 kts | 124° |
| 2026-05-08 08:19 | 38.86879 | 88.19603 | 33122 ft | 452 kts | 124° |
| 2026-05-08 08:19 | 38.83157 | 88.26136 | 33145 ft | 453 kts | 124° |
| 2026-05-08 08:20 | 38.79438 | 88.32651 | 33174 ft | 453 kts | 124° |